Mount Vernon, Texas
Current Conditions -  °F | °C
As of 2:35 PM on Thursday 29 Jan 2015 (Local Time) from KOSA Reporting Station
Clear Clear  
Wind Chill: 69°   Ceiling: Unl
Heat Index: 69°   Visibility: 10mi
Dew Point: 37°   Wind: 15mph
Humidity: 30%   Direction: 310°NW
Pressure: 30.24"   Gusts: 21mph
Location:  33.19°N, 95.22°W
Report Text: KOSA 292035Z AUTO 31013G18KT 10SM CLR 21/03 A3024 RMK AO1 T02080025
Loading
Personal Weather Stations






























Interactive Weather Map New forecast layout! Learn more

10-Day Weather Forecast

Advertisements
Track Severe Weather on mobile